RUK5DM EGSS-EGPH
Flight info
| Callsign | RUK5DM |
|---|---|
| Flight time | 0h 56m |
| Altitude | 32000 |
| Route | UTAVA Q75 BUZAD T420 TNT UN57 POL UN601 RIBEL DCT INPIP |
| Aircraft | B738/M-SDE3FGILRWY/SB1 |
Departure
| Time | 2026-04-20 15:39 |
|---|---|
| Airport | London Stansted Airport (EGSS) |
Arrival
| Time | 2026-04-20 16:35 |
|---|---|
| Airport | Edinburgh Airport (EGPH) |
| Time | Latitude | Longitude | Altitude | Speed | Heading |
|---|---|---|---|---|---|
| 2026-04-20 15:06 | 51.89263 | 0.25945 | 348 ft | 0 kts | 43° |
| 2026-04-20 15:23 | 51.89252 | 0.25930 | 353 ft | 4 kts | 42° |
| 2026-04-20 15:24 | 51.89232 | 0.25902 | 353 ft | 4 kts | 31° |
| 2026-04-20 15:24 | 51.89210 | 0.25889 | 356 ft | 4 kts | 338° |
| 2026-04-20 15:24 | 51.89203 | 0.25895 | 357 ft | 1 kts | 313° |
| 2026-04-20 15:28 | 51.89205 | 0.25892 | 355 ft | 2 kts | 313° |
| 2026-04-20 15:28 | 51.89219 | 0.25868 | 348 ft | 3 kts | 313° |
| 2026-04-20 15:29 | 51.89235 | 0.25840 | 347 ft | 4 kts | 313° |
| 2026-04-20 15:29 | 51.89259 | 0.25799 | 349 ft | 6 kts | 313° |
| 2026-04-20 15:29 | 51.89296 | 0.25735 | 347 ft | 9 kts | 314° |
| 2026-04-20 15:29 | 51.89345 | 0.25653 | 354 ft | 10 kts | 314° |
| 2026-04-20 15:30 | 51.89351 | 0.25542 | 345 ft | 11 kts | 236° |
| 2026-04-20 15:30 | 51.89298 | 0.25456 | 345 ft | 11 kts | 224° |
| 2026-04-20 15:30 | 51.89244 | 0.25372 | 347 ft | 10 kts | 224° |
| 2026-04-20 15:30 | 51.89191 | 0.25293 | 349 ft | 10 kts | 221° |
| 2026-04-20 15:31 | 51.89140 | 0.25220 | 345 ft | 10 kts | 221° |
| 2026-04-20 15:31 | 51.89088 | 0.25148 | 350 ft | 10 kts | 223° |
| 2026-04-20 15:31 | 51.89041 | 0.25073 | 349 ft | 9 kts | 224° |
| 2026-04-20 15:31 | 51.88995 | 0.25000 | 350 ft | 9 kts | 222° |
| 2026-04-20 15:32 | 51.88946 | 0.24928 | 353 ft | 10 kts | 222° |
| 2026-04-20 15:32 | 51.88879 | 0.24829 | 346 ft | 16 kts | 223° |
| 2026-04-20 15:32 | 51.88797 | 0.24704 | 349 ft | 16 kts | 222° |
| 2026-04-20 15:32 | 51.88713 | 0.24578 | 351 ft | 17 kts | 223° |
| 2026-04-20 15:33 | 51.88624 | 0.24443 | 353 ft | 17 kts | 223° |
| 2026-04-20 15:33 | 51.88528 | 0.24301 | 346 ft | 20 kts | 223° |
| 2026-04-20 15:33 | 51.88415 | 0.24132 | 350 ft | 24 kts | 223° |
| 2026-04-20 15:33 | 51.88294 | 0.23948 | 345 ft | 23 kts | 222° |
| 2026-04-20 15:34 | 51.88179 | 0.23775 | 344 ft | 22 kts | 223° |
| 2026-04-20 15:34 | 51.88066 | 0.23605 | 347 ft | 22 kts | 223° |
| 2026-04-20 15:34 | 51.87955 | 0.23443 | 344 ft | 21 kts | 222° |
| 2026-04-20 15:34 | 51.87849 | 0.23281 | 350 ft | 21 kts | 223° |
| 2026-04-20 15:35 | 51.87753 | 0.23137 | 351 ft | 13 kts | 228° |
| 2026-04-20 15:35 | 51.87750 | 0.23004 | 344 ft | 13 kts | 304° |
| 2026-04-20 15:35 | 51.87766 | 0.22878 | 345 ft | 12 kts | 244° |
| 2026-04-20 15:35 | 51.87707 | 0.22768 | 344 ft | 13 kts | 225° |
| 2026-04-20 15:36 | 51.87643 | 0.22664 | 344 ft | 13 kts | 225° |
| 2026-04-20 15:36 | 51.87598 | 0.22600 | 345 ft | 13 kts | 214° |
| 2026-04-20 15:36 | 51.87516 | 0.22507 | 336 ft | 15 kts | 223° |
| 2026-04-20 15:36 | 51.87425 | 0.22353 | 336 ft | 14 kts | 232° |
| 2026-04-20 15:37 | 51.87411 | 0.22205 | 335 ft | 13 kts | 292° |
| 2026-04-20 15:37 | 51.87441 | 0.22131 | 336 ft | 5 kts | 310° |
| 2026-04-20 15:37 | 51.87451 | 0.22111 | 336 ft | 3 kts | 311° |
| 2026-04-20 15:37 | 51.87467 | 0.22082 | 333 ft | 4 kts | 312° |
| 2026-04-20 15:38 | 51.87483 | 0.22055 | 334 ft | 5 kts | 314° |
| 2026-04-20 15:38 | 51.87519 | 0.22033 | 333 ft | 6 kts | 2° |
| 2026-04-20 15:38 | 51.87562 | 0.22071 | 334 ft | 8 kts | 41° |
| 2026-04-20 15:38 | 51.87569 | 0.22080 | 333 ft | 0 kts | 41° |
| 2026-04-20 15:39 | 51.87622 | 0.22158 | 337 ft | 39 kts | 42° |
| 2026-04-20 15:39 | 51.87994 | 0.22717 | 335 ft | 104 kts | 43° |
| 2026-04-20 15:39 | 51.88663 | 0.23707 | 482 ft | 140 kts | 41° |
| 2026-04-20 15:39 | 51.89348 | 0.24688 | 1154 ft | 138 kts | 41° |
| 2026-04-20 15:40 | 51.90117 | 0.25855 | 1523 ft | 159 kts | 43° |
| 2026-04-20 15:40 | 51.90949 | 0.27122 | 2114 ft | 173 kts | 42° |
| 2026-04-20 15:40 | 51.91898 | 0.28562 | 2331 ft | 199 kts | 42° |
| 2026-04-20 15:40 | 51.93127 | 0.29780 | 2579 ft | 218 kts | 18° |
| 2026-04-20 15:41 | 51.94660 | 0.29855 | 3098 ft | 227 kts | 349° |
| 2026-04-20 15:41 | 51.96110 | 0.28631 | 3503 ft | 250 kts | 318° |
| 2026-04-20 15:41 | 51.96994 | 0.26132 | 4123 ft | 266 kts | 288° |
| 2026-04-20 15:41 | 51.97331 | 0.23233 | 4788 ft | 269 kts | 281° |
| 2026-04-20 15:42 | 51.97593 | 0.20218 | 4977 ft | 271 kts | 281° |
| 2026-04-20 15:42 | 51.97857 | 0.17179 | 4993 ft | 272 kts | 281° |
| 2026-04-20 15:42 | 51.98140 | 0.14171 | 4987 ft | 268 kts | 282° |
| 2026-04-20 15:42 | 51.98445 | 0.11188 | 4995 ft | 269 kts | 282° |
| 2026-04-20 15:43 | 51.98764 | 0.08198 | 5015 ft | 269 kts | 282° |
| 2026-04-20 15:43 | 51.98985 | 0.05179 | 4999 ft | 272 kts | 270° |
| 2026-04-20 15:43 | 51.98749 | 0.02134 | 5018 ft | 273 kts | 264° |
| 2026-04-20 15:43 | 51.98487 | -0.00918 | 5013 ft | 273 kts | 264° |
| 2026-04-20 15:44 | 51.98246 | -0.03986 | 4996 ft | 274 kts | 264° |
| 2026-04-20 15:44 | 51.98014 | -0.07057 | 5005 ft | 275 kts | 265° |
| 2026-04-20 15:44 | 51.97776 | -0.10148 | 5286 ft | 278 kts | 265° |
| 2026-04-20 15:44 | 51.97530 | -0.13300 | 5987 ft | 282 kts | 264° |
| 2026-04-20 15:45 | 51.97286 | -0.16424 | 6915 ft | 277 kts | 264° |
| 2026-04-20 15:45 | 51.97042 | -0.19526 | 7708 ft | 280 kts | 264° |
| 2026-04-20 15:45 | 51.96796 | -0.22668 | 8493 ft | 281 kts | 264° |
| 2026-04-20 15:45 | 51.96551 | -0.25780 | 9314 ft | 282 kts | 263° |
| 2026-04-20 15:46 | 51.96301 | -0.28953 | 10162 ft | 285 kts | 264° |
| 2026-04-20 15:46 | 51.96047 | -0.32171 | 10737 ft | 296 kts | 264° |
| 2026-04-20 15:46 | 51.95774 | -0.35628 | 10925 ft | 320 kts | 264° |
| 2026-04-20 15:46 | 51.95483 | -0.39310 | 11261 ft | 337 kts | 264° |
| 2026-04-20 15:47 | 51.95178 | -0.43105 | 11947 ft | 341 kts | 264° |
| 2026-04-20 15:47 | 51.94870 | -0.46930 | 12747 ft | 343 kts | 264° |
| 2026-04-20 15:47 | 51.94695 | -0.50767 | 13633 ft | 342 kts | 276° |
| 2026-04-20 15:47 | 51.95354 | -0.54454 | 14372 ft | 343 kts | 299° |
| 2026-04-20 15:48 | 51.96771 | -0.57527 | 15216 ft | 342 kts | 316° |
| 2026-04-20 15:48 | 51.98713 | -0.59798 | 15922 ft | 347 kts | 328° |
| 2026-04-20 15:48 | 52.00800 | -0.61812 | 16684 ft | 351 kts | 329° |
| 2026-04-20 15:48 | 52.02911 | -0.63803 | 17447 ft | 353 kts | 329° |
| 2026-04-20 15:49 | 52.05043 | -0.65828 | 18236 ft | 355 kts | 328° |
| 2026-04-20 15:49 | 52.07189 | -0.67899 | 18811 ft | 362 kts | 328° |
| 2026-04-20 15:49 | 52.09347 | -0.70004 | 19494 ft | 363 kts | 327° |
| 2026-04-20 15:49 | 52.11509 | -0.72125 | 20283 ft | 361 kts | 327° |
| 2026-04-20 15:50 | 52.13658 | -0.74239 | 21027 ft | 361 kts | 327° |
| 2026-04-20 15:50 | 52.15810 | -0.76369 | 21726 ft | 362 kts | 326° |
| 2026-04-20 15:50 | 52.17967 | -0.78509 | 22388 ft | 364 kts | 326° |
| 2026-04-20 15:50 | 52.20130 | -0.80656 | 23059 ft | 365 kts | 326° |
| 2026-04-20 15:51 | 52.22303 | -0.82815 | 23710 ft | 366 kts | 326° |
| 2026-04-20 15:51 | 52.24487 | -0.84985 | 24247 ft | 368 kts | 325° |
| 2026-04-20 15:51 | 52.26648 | -0.87130 | 24734 ft | 370 kts | 325° |
| 2026-04-20 15:51 | 52.28854 | -0.89319 | 25179 ft | 374 kts | 326° |
| 2026-04-20 15:52 | 52.31118 | -0.91566 | 25237 ft | 388 kts | 327° |
| 2026-04-20 15:52 | 52.33449 | -0.93881 | 25553 ft | 394 kts | 327° |
| 2026-04-20 15:52 | 52.35791 | -0.96208 | 26108 ft | 393 kts | 327° |
| 2026-04-20 15:53 | 52.40402 | -1.00796 | 27734 ft | 376 kts | 325° |
| 2026-04-20 15:53 | 52.42603 | -1.02989 | 28755 ft | 366 kts | 324° |
| 2026-04-20 15:53 | 52.44765 | -1.05151 | 29351 ft | 364 kts | 324° |
| 2026-04-20 15:53 | 52.46934 | -1.07325 | 29863 ft | 365 kts | 324° |
| 2026-04-20 15:54 | 52.49099 | -1.09497 | 30349 ft | 366 kts | 324° |
| 2026-04-20 15:54 | 52.51273 | -1.11695 | 30748 ft | 367 kts | 324° |
| 2026-04-20 15:54 | 52.53449 | -1.13906 | 31019 ft | 372 kts | 325° |
| 2026-04-20 15:54 | 52.55666 | -1.16160 | 31220 ft | 377 kts | 325° |
| 2026-04-20 15:55 | 52.57905 | -1.18430 | 31578 ft | 378 kts | 325° |
| 2026-04-20 15:55 | 52.60139 | -1.20690 | 32018 ft | 377 kts | 325° |
| 2026-04-20 15:55 | 52.62382 | -1.22960 | 32226 ft | 380 kts | 325° |
| 2026-04-20 15:55 | 52.64633 | -1.25241 | 32229 ft | 377 kts | 325° |
| 2026-04-20 15:56 | 52.69101 | -1.29782 | 32256 ft | 383 kts | 325° |
| 2026-04-20 15:56 | 52.73731 | -1.34497 | 32307 ft | 399 kts | 325° |
| 2026-04-20 15:57 | 52.78546 | -1.39404 | 32299 ft | 414 kts | 326° |
| 2026-04-20 15:57 | 52.83523 | -1.44485 | 32303 ft | 427 kts | 326° |
| 2026-04-20 15:58 | 52.88609 | -1.49692 | 32288 ft | 431 kts | 326° |
| 2026-04-20 15:58 | 52.93690 | -1.54909 | 32283 ft | 426 kts | 326° |
| 2026-04-20 15:59 | 52.98671 | -1.60041 | 32297 ft | 421 kts | 326° |
| 2026-04-20 15:59 | 53.03675 | -1.65211 | 32305 ft | 425 kts | 326° |
| 2026-04-20 16:00 | 53.09033 | -1.69414 | 32314 ft | 430 kts | 337° |
| 2026-04-20 16:00 | 53.14696 | -1.72835 | 32301 ft | 433 kts | 338° |
| 2026-04-20 16:01 | 53.20372 | -1.76286 | 32300 ft | 435 kts | 337° |
| 2026-04-20 16:01 | 53.26059 | -1.79802 | 32310 ft | 436 kts | 338° |
| 2026-04-20 16:02 | 53.31751 | -1.83354 | 32307 ft | 437 kts | 338° |
| 2026-04-20 16:02 | 53.37463 | -1.86931 | 32298 ft | 438 kts | 338° |
| 2026-04-20 16:03 | 53.43124 | -1.90484 | 32301 ft | 438 kts | 338° |
| 2026-04-20 16:03 | 53.48827 | -1.94073 | 32307 ft | 437 kts | 338° |
| 2026-04-20 16:04 | 53.54515 | -1.97664 | 32313 ft | 436 kts | 338° |
| 2026-04-20 16:04 | 53.60192 | -2.01257 | 32309 ft | 436 kts | 338° |
| 2026-04-20 16:05 | 53.65860 | -2.04856 | 32310 ft | 435 kts | 338° |
| 2026-04-20 16:05 | 53.71508 | -2.08452 | 32291 ft | 434 kts | 337° |
| 2026-04-20 16:06 | 53.77131 | -2.12117 | 32306 ft | 433 kts | 336° |
| 2026-04-20 16:06 | 53.82701 | -2.16003 | 32316 ft | 433 kts | 336° |
| 2026-04-20 16:07 | 53.88284 | -2.19867 | 32312 ft | 433 kts | 336° |
| 2026-04-20 16:07 | 53.93870 | -2.23688 | 32321 ft | 433 kts | 336° |
| 2026-04-20 16:08 | 53.99467 | -2.27527 | 32324 ft | 434 kts | 337° |
| 2026-04-20 16:08 | 54.05067 | -2.31386 | 32319 ft | 435 kts | 337° |
| 2026-04-20 16:09 | 54.10682 | -2.35260 | 32322 ft | 436 kts | 337° |
| 2026-04-20 16:09 | 54.16304 | -2.39151 | 32319 ft | 436 kts | 337° |
| 2026-04-20 16:10 | 54.21936 | -2.43061 | 32307 ft | 436 kts | 337° |
| 2026-04-20 16:10 | 54.24721 | -2.44999 | 32025 ft | 427 kts | 337° |
| 2026-04-20 16:10 | 54.27439 | -2.46892 | 31781 ft | 417 kts | 337° |
| 2026-04-20 16:11 | 54.30100 | -2.48748 | 31518 ft | 409 kts | 337° |
| 2026-04-20 16:11 | 54.32706 | -2.50569 | 31272 ft | 400 kts | 337° |
| 2026-04-20 16:11 | 54.35260 | -2.52356 | 31019 ft | 393 kts | 337° |
| 2026-04-20 16:11 | 54.37767 | -2.54113 | 30775 ft | 386 kts | 337° |
| 2026-04-20 16:12 | 54.40226 | -2.55838 | 30527 ft | 379 kts | 337° |
| 2026-04-20 16:12 | 54.42617 | -2.57518 | 30258 ft | 372 kts | 337° |
| 2026-04-20 16:12 | 54.45029 | -2.59215 | 29960 ft | 367 kts | 337° |
| 2026-04-20 16:12 | 54.47352 | -2.60852 | 29685 ft | 364 kts | 337° |
| 2026-04-20 16:13 | 54.49724 | -2.62525 | 29400 ft | 365 kts | 337° |
| 2026-04-20 16:13 | 54.52056 | -2.64172 | 29133 ft | 369 kts | 337° |
| 2026-04-20 16:13 | 54.54464 | -2.65875 | 28850 ft | 369 kts | 337° |
| 2026-04-20 16:13 | 54.56829 | -2.67549 | 28565 ft | 366 kts | 337° |
| 2026-04-20 16:14 | 54.59173 | -2.69210 | 28277 ft | 363 kts | 337° |
| 2026-04-20 16:14 | 54.61503 | -2.70863 | 28009 ft | 361 kts | 337° |
| 2026-04-20 16:14 | 54.63824 | -2.72513 | 27737 ft | 359 kts | 337° |
| 2026-04-20 16:14 | 54.66099 | -2.74131 | 27467 ft | 358 kts | 337° |
| 2026-04-20 16:15 | 54.68391 | -2.75764 | 27201 ft | 356 kts | 337° |
| 2026-04-20 16:15 | 54.70680 | -2.77396 | 26938 ft | 354 kts | 337° |
| 2026-04-20 16:15 | 54.72951 | -2.79018 | 26691 ft | 353 kts | 337° |
| 2026-04-20 16:15 | 54.75219 | -2.80640 | 26425 ft | 352 kts | 337° |
| 2026-04-20 16:16 | 54.77501 | -2.82273 | 26371 ft | 355 kts | 337° |
| 2026-04-20 16:16 | 54.79776 | -2.83904 | 26317 ft | 354 kts | 337° |
| 2026-04-20 16:16 | 54.82044 | -2.85531 | 26335 ft | 352 kts | 337° |
| 2026-04-20 16:16 | 54.84311 | -2.87159 | 26330 ft | 354 kts | 337° |
| 2026-04-20 16:17 | 54.86588 | -2.88797 | 26327 ft | 354 kts | 337° |
| 2026-04-20 16:17 | 54.88855 | -2.90430 | 26079 ft | 355 kts | 337° |
| 2026-04-20 16:17 | 54.91157 | -2.92095 | 25531 ft | 359 kts | 337° |
| 2026-04-20 16:17 | 54.93460 | -2.93765 | 25034 ft | 360 kts | 337° |
| 2026-04-20 16:18 | 54.95774 | -2.95445 | 24539 ft | 360 kts | 337° |
| 2026-04-20 16:18 | 54.98086 | -2.97125 | 24055 ft | 360 kts | 336° |
| 2026-04-20 16:18 | 55.00397 | -2.98806 | 23475 ft | 361 kts | 336° |
| 2026-04-20 16:18 | 55.02724 | -3.00502 | 22924 ft | 361 kts | 337° |
| 2026-04-20 16:19 | 55.05031 | -3.02185 | 22423 ft | 360 kts | 336° |
| 2026-04-20 16:19 | 55.07340 | -3.03871 | 21920 ft | 359 kts | 337° |
| 2026-04-20 16:19 | 55.09636 | -3.05549 | 21419 ft | 358 kts | 337° |
| 2026-04-20 16:19 | 55.11934 | -3.07232 | 20913 ft | 357 kts | 337° |
| 2026-04-20 16:20 | 55.14224 | -3.08909 | 20411 ft | 356 kts | 337° |
| 2026-04-20 16:20 | 55.16507 | -3.10584 | 19874 ft | 357 kts | 337° |
| 2026-04-20 16:20 | 55.18802 | -3.12266 | 19334 ft | 358 kts | 337° |
| 2026-04-20 16:20 | 55.21105 | -3.13956 | 18790 ft | 359 kts | 338° |
| 2026-04-20 16:21 | 55.23412 | -3.15650 | 18194 ft | 360 kts | 338° |
| 2026-04-20 16:21 | 55.25727 | -3.17353 | 17608 ft | 361 kts | 338° |
| 2026-04-20 16:21 | 55.28035 | -3.19054 | 17052 ft | 361 kts | 338° |
| 2026-04-20 16:21 | 55.30436 | -3.20280 | 16457 ft | 359 kts | 357° |
| 2026-04-20 16:22 | 55.32080 | -3.20246 | 16153 ft | 356 kts | 4° |
| 2026-04-20 16:22 | 55.34547 | -3.20471 | 15567 ft | 358 kts | 350° |
| 2026-04-20 16:22 | 55.36968 | -3.21482 | 15043 ft | 357 kts | 346° |
| 2026-04-20 16:22 | 55.39313 | -3.22918 | 14502 ft | 358 kts | 333° |
| 2026-04-20 16:23 | 55.41406 | -3.25251 | 14054 ft | 355 kts | 326° |
| 2026-04-20 16:23 | 55.43416 | -3.27758 | 13613 ft | 352 kts | 324° |
| 2026-04-20 16:23 | 55.45379 | -3.30263 | 13240 ft | 346 kts | 324° |
| 2026-04-20 16:23 | 55.47334 | -3.32765 | 12664 ft | 347 kts | 324° |
| 2026-04-20 16:24 | 55.49271 | -3.35245 | 12300 ft | 341 kts | 324° |
| 2026-04-20 16:24 | 55.51185 | -3.37692 | 11875 ft | 338 kts | 324° |
| 2026-04-20 16:24 | 55.53085 | -3.40120 | 11461 ft | 335 kts | 324° |
| 2026-04-20 16:24 | 55.54963 | -3.42518 | 11053 ft | 332 kts | 324° |
| 2026-04-20 16:25 | 55.56829 | -3.44899 | 10648 ft | 330 kts | 324° |
| 2026-04-20 16:25 | 55.58681 | -3.47258 | 10257 ft | 327 kts | 324° |
| 2026-04-20 16:25 | 55.60529 | -3.49611 | 9821 ft | 326 kts | 324° |
| 2026-04-20 16:25 | 55.62365 | -3.51949 | 9387 ft | 325 kts | 324° |
| 2026-04-20 16:26 | 55.64191 | -3.54278 | 8980 ft | 323 kts | 324° |
| 2026-04-20 16:26 | 55.66010 | -3.56601 | 8612 ft | 320 kts | 324° |
| 2026-04-20 16:26 | 55.67807 | -3.58899 | 8238 ft | 318 kts | 324° |
| 2026-04-20 16:26 | 55.69595 | -3.61189 | 7878 ft | 315 kts | 324° |
| 2026-04-20 16:27 | 55.71353 | -3.63445 | 7628 ft | 310 kts | 324° |
| 2026-04-20 16:27 | 55.73085 | -3.65673 | 7383 ft | 304 kts | 324° |
| 2026-04-20 16:27 | 55.74781 | -3.67864 | 7142 ft | 300 kts | 324° |
| 2026-04-20 16:27 | 55.76456 | -3.70028 | 6898 ft | 296 kts | 324° |
| 2026-04-20 16:28 | 55.78109 | -3.72160 | 6657 ft | 292 kts | 324° |
| 2026-04-20 16:28 | 55.79740 | -3.74264 | 6399 ft | 288 kts | 324° |
| 2026-04-20 16:28 | 55.81327 | -3.76317 | 6133 ft | 285 kts | 324° |
| 2026-04-20 16:28 | 55.82939 | -3.78413 | 5882 ft | 281 kts | 324° |
| 2026-04-20 16:29 | 55.84642 | -3.80025 | 5605 ft | 277 kts | 347° |
| 2026-04-20 16:29 | 55.86523 | -3.80116 | 5373 ft | 269 kts | 15° |
| 2026-04-20 16:29 | 55.88120 | -3.78702 | 5175 ft | 255 kts | 43° |
| 2026-04-20 16:29 | 55.89092 | -3.76162 | 4901 ft | 241 kts | 74° |
| 2026-04-20 16:30 | 55.89271 | -3.73314 | 4675 ft | 231 kts | 91° |
| 2026-04-20 16:30 | 55.89225 | -3.70503 | 4400 ft | 224 kts | 94° |
| 2026-04-20 16:30 | 55.89005 | -3.67800 | 4151 ft | 218 kts | 100° |
| 2026-04-20 16:30 | 55.88721 | -3.65160 | 3823 ft | 216 kts | 101° |
| 2026-04-20 16:31 | 55.88432 | -3.62591 | 3490 ft | 207 kts | 101° |
| 2026-04-20 16:31 | 55.88144 | -3.60137 | 3121 ft | 196 kts | 101° |
| 2026-04-20 16:31 | 55.88141 | -3.57846 | 2718 ft | 182 kts | 69° |
| 2026-04-20 16:31 | 55.88781 | -3.56020 | 2415 ft | 166 kts | 62° |
| 2026-04-20 16:32 | 55.89252 | -3.54281 | 2210 ft | 145 kts | 64° |
| 2026-04-20 16:32 | 55.89731 | -3.52829 | 2010 ft | 128 kts | 62° |
| 2026-04-20 16:32 | 55.90170 | -3.51534 | 1832 ft | 119 kts | 62° |
| 2026-04-20 16:32 | 55.90596 | -3.50271 | 1678 ft | 120 kts | 62° |
| 2026-04-20 16:33 | 55.91025 | -3.48998 | 1501 ft | 120 kts | 60° |
| 2026-04-20 16:33 | 55.91456 | -3.47726 | 1329 ft | 119 kts | 61° |
| 2026-04-20 16:33 | 55.91878 | -3.46474 | 1163 ft | 119 kts | 61° |
| 2026-04-20 16:33 | 55.92306 | -3.45207 | 1001 ft | 119 kts | 61° |
| 2026-04-20 16:34 | 55.92736 | -3.43935 | 836 ft | 119 kts | 61° |
| 2026-04-20 16:34 | 55.93155 | -3.42698 | 676 ft | 117 kts | 59° |
| 2026-04-20 16:34 | 55.93575 | -3.41458 | 518 ft | 117 kts | 60° |
| 2026-04-20 16:34 | 55.93992 | -3.40225 | 361 ft | 116 kts | 59° |
| 2026-04-20 16:35 | 55.94401 | -3.39017 | 208 ft | 114 kts | 59° |
| 2026-04-20 16:35 | 55.94811 | -3.37806 | 112 ft | 108 kts | 59° |
| 2026-04-20 16:35 | 55.95132 | -3.36852 | 107 ft | 56 kts | 59° |
| 2026-04-20 16:35 | 55.95235 | -3.36547 | 106 ft | 12 kts | 58° |
| 2026-04-20 16:36 | 55.95232 | -3.36412 | 104 ft | 11 kts | 130° |
| 2026-04-20 16:36 | 55.95187 | -3.36349 | 106 ft | 0 kts | 146° |
| 2026-04-20 16:36 | 55.95177 | -3.36337 | 105 ft | 4 kts | 146° |
| 2026-04-20 16:37 | 55.95167 | -3.36324 | 106 ft | 2 kts | 146° |
| 2026-04-20 16:37 | 55.95148 | -3.36277 | 106 ft | 8 kts | 115° |
| 2026-04-20 16:37 | 55.95124 | -3.36160 | 105 ft | 10 kts | 110° |
| 2026-04-20 16:37 | 55.95101 | -3.36043 | 106 ft | 10 kts | 109° |
| 2026-04-20 16:38 | 55.95077 | -3.35931 | 105 ft | 9 kts | 112° |
| 2026-04-20 16:38 | 55.95062 | -3.35868 | 105 ft | 5 kts | 119° |
| 2026-04-20 16:38 | 55.95035 | -3.35834 | 106 ft | 5 kts | 162° |
| 2026-04-20 16:38 | 55.95006 | -3.35856 | 105 ft | 5 kts | 229° |
| 2026-04-20 16:39 | 55.94992 | -3.35910 | 105 ft | 5 kts | 256° |
| 2026-04-20 16:39 | 55.94983 | -3.35966 | 106 ft | 5 kts | 252° |
| 2026-04-20 16:39 | 55.94973 | -3.36021 | 106 ft | 4 kts | 250° |
| 2026-04-20 16:39 | 55.94970 | -3.36035 | 106 ft | 0 kts | 250° |